sensor_id;sensor_type;location;lat;lon;timestamp;temperature;humidity
85097;SHT30;75436;53.502;10.030;2024-01-30T00:00:11;1.98;91.35
85097;SHT30;75436;53.502;10.030;2024-01-30T00:02:37;2.01;91.44
85097;SHT30;75436;53.502;10.030;2024-01-30T00:05:02;2.01;91.28
85097;SHT30;75436;53.502;10.030;2024-01-30T00:07:30;2.08;91.35
85097;SHT30;75436;53.502;10.030;2024-01-30T00:09:55;2.10;91.27
85097;SHT30;75436;53.502;10.030;2024-01-30T00:12:21;2.12;91.14
85097;SHT30;75436;53.502;10.030;2024-01-30T00:14:46;2.14;91.16
85097;SHT30;75436;53.502;10.030;2024-01-30T00:17:12;2.15;91.16
85097;SHT30;75436;53.502;10.030;2024-01-30T00:19:37;2.17;91.20
85097;SHT30;75436;53.502;10.030;2024-01-30T00:22:03;2.22;91.58
85097;SHT30;75436;53.502;10.030;2024-01-30T00:24:28;2.18;91.23
85097;SHT30;75436;53.502;10.030;2024-01-30T00:26:55;2.15;91.22
85097;SHT30;75436;53.502;10.030;2024-01-30T00:29:22;2.10;90.85
85097;SHT30;75436;53.502;10.030;2024-01-30T00:31:48;2.00;90.78
85097;SHT30;75436;53.502;10.030;2024-01-30T00:34:13;1.95;90.91
85097;SHT30;75436;53.502;10.030;2024-01-30T00:36:40;1.97;91.02
85097;SHT30;75436;53.502;10.030;2024-01-30T00:39:06;1.91;90.96
85097;SHT30;75436;53.502;10.030;2024-01-30T00:41:34;1.84;90.93
85097;SHT30;75436;53.502;10.030;2024-01-30T00:44:00;1.81;90.99
85097;SHT30;75436;53.502;10.030;2024-01-30T00:46:26;1.77;91.07
85097;SHT30;75436;53.502;10.030;2024-01-30T00:48:51;1.74;91.25
85097;SHT30;75436;53.502;10.030;2024-01-30T00:51:17;1.74;91.36
85097;SHT30;75436;53.502;10.030;2024-01-30T00:53:42;1.74;91.26
85097;SHT30;75436;53.502;10.030;2024-01-30T00:56:08;1.67;91.18
85097;SHT30;75436;53.502;10.030;2024-01-30T00:58:34;1.63;91.20
85097;SHT30;75436;53.502;10.030;2024-01-30T01:00:59;1.57;91.25
85097;SHT30;75436;53.502;10.030;2024-01-30T01:03:24;1.56;91.49
85097;SHT30;75436;53.502;10.030;2024-01-30T01:05:50;1.59;91.63
85097;SHT30;75436;53.502;10.030;2024-01-30T01:08:15;1.56;91.64
85097;SHT30;75436;53.502;10.030;2024-01-30T01:10:43;1.56;91.72
85097;SHT30;75436;53.502;10.030;2024-01-30T01:13:10;1.54;91.80
85097;SHT30;75436;53.502;10.030;2024-01-30T01:15:36;1.52;91.83
85097;SHT30;75436;53.502;10.030;2024-01-30T01:18:02;1.56;91.93
85097;SHT30;75436;53.502;10.030;2024-01-30T01:20:31;1.68;92.22
85097;SHT30;75436;53.502;10.030;2024-01-30T01:22:56;1.71;92.22
85097;SHT30;75436;53.502;10.030;2024-01-30T01:25:22;1.74;92.26
85097;SHT30;75436;53.502;10.030;2024-01-30T01:27:50;1.68;91.94
85097;SHT30;75436;53.502;10.030;2024-01-30T01:30:21;1.68;91.93
85097;SHT30;75436;53.502;10.030;2024-01-30T01:32:53;1.66;92.04
85097;SHT30;75436;53.502;10.030;2024-01-30T01:35:26;1.68;92.05
85097;SHT30;75436;53.502;10.030;2024-01-30T01:37:54;1.70;92.10
85097;SHT30;75436;53.502;10.030;2024-01-30T01:40:27;1.84;92.35
85097;SHT30;75436;53.502;10.030;2024-01-30T01:42:57;1.81;91.91
85097;SHT30;75436;53.502;10.030;2024-01-30T01:45:23;1.81;92.03
85097;SHT30;75436;53.502;10.030;2024-01-30T01:47:52;1.81;91.99
85097;SHT30;75436;53.502;10.030;2024-01-30T01:50:21;1.80;91.86
85097;SHT30;75436;53.502;10.030;2024-01-30T01:52:52;1.82;91.78
85097;SHT30;75436;53.502;10.030;2024-01-30T01:55:22;1.88;91.84
85097;SHT30;75436;53.502;10.030;2024-01-30T01:57:54;1.88;91.80
85097;SHT30;75436;53.502;10.030;2024-01-30T02:00:20;1.85;91.64
85097;SHT30;75436;53.502;10.030;2024-01-30T02:02:46;1.78;91.38
85097;SHT30;75436;53.502;10.030;2024-01-30T02:05:14;1.73;91.36
85097;SHT30;75436;53.502;10.030;2024-01-30T02:07:44;1.68;91.40
85097;SHT30;75436;53.502;10.030;2024-01-30T02:10:09;1.67;91.61
85097;SHT30;75436;53.502;10.030;2024-01-30T02:12:35;1.71;91.78
85097;SHT30;75436;53.502;10.030;2024-01-30T02:15:00;1.77;91.90
85097;SHT30;75436;53.502;10.030;2024-01-30T02:17:26;1.80;91.89
85097;SHT30;75436;53.502;10.030;2024-01-30T02:19:53;1.82;91.79
85097;SHT30;75436;53.502;10.030;2024-01-30T02:22:20;1.82;91.63
85097;SHT30;75436;53.502;10.030;2024-01-30T02:24:48;1.81;91.64
85097;SHT30;75436;53.502;10.030;2024-01-30T02:27:15;1.82;91.78
85097;SHT30;75436;53.502;10.030;2024-01-30T02:29:41;1.90;91.88
85097;SHT30;75436;53.502;10.030;2024-01-30T02:32:09;1.90;91.85
85097;SHT30;75436;53.502;10.030;2024-01-30T02:34:35;1.88;91.75
85097;SHT30;75436;53.502;10.030;2024-01-30T02:37:02;1.91;91.79
85097;SHT30;75436;53.502;10.030;2024-01-30T02:39:27;1.95;91.80
85097;SHT30;75436;53.502;10.030;2024-01-30T02:41:52;2.00;91.71
85097;SHT30;75436;53.502;10.030;2024-01-30T02:44:18;2.01;91.80
85097;SHT30;75436;53.502;10.030;2024-01-30T02:46:43;2.01;91.64
85097;SHT30;75436;53.502;10.030;2024-01-30T02:49:09;1.94;91.52
85097;SHT30;75436;53.502;10.030;2024-01-30T02:51:34;1.94;91.60
85097;SHT30;75436;53.502;10.030;2024-01-30T02:54:00;1.97;91.71
85097;SHT30;75436;53.502;10.030;2024-01-30T02:56:26;2.04;91.82
85097;SHT30;75436;53.502;10.030;2024-01-30T02:58:52;2.05;91.85
85097;SHT30;75436;53.502;10.030;2024-01-30T03:01:17;2.10;91.90
85097;SHT30;75436;53.502;10.030;2024-01-30T03:03:43;2.14;91.60
85097;SHT30;75436;53.502;10.030;2024-01-30T03:06:08;2.17;91.73
85097;SHT30;75436;53.502;10.030;2024-01-30T03:08:34;2.24;91.68
85097;SHT30;75436;53.502;10.030;2024-01-30T03:11:00;2.21;91.50
85097;SHT30;75436;53.502;10.030;2024-01-30T03:13:27;2.18;91.35
85097;SHT30;75436;53.502;10.030;2024-01-30T03:15:52;2.17;91.17
85097;SHT30;75436;53.502;10.030;2024-01-30T03:18:17;2.08;91.18
85097;SHT30;75436;53.502;10.030;2024-01-30T03:20:43;2.00;91.06
85097;SHT30;75436;53.502;10.030;2024-01-30T03:23:08;1.97;91.16
85097;SHT30;75436;53.502;10.030;2024-01-30T03:25:34;1.97;91.36
85097;SHT30;75436;53.502;10.030;2024-01-30T03:27:59;1.97;91.50
85097;SHT30;75436;53.502;10.030;2024-01-30T03:30:24;1.93;91.42
85097;SHT30;75436;53.502;10.030;2024-01-30T03:32:50;1.91;91.47
85097;SHT30;75436;53.502;10.030;2024-01-30T03:35:19;1.85;91.32
85097;SHT30;75436;53.502;10.030;2024-01-30T03:37:46;1.77;91.26
85097;SHT30;75436;53.502;10.030;2024-01-30T03:40:12;1.73;91.39
85097;SHT30;75436;53.502;10.030;2024-01-30T03:42:40;1.70;91.63
85097;SHT30;75436;53.502;10.030;2024-01-30T03:45:07;1.71;91.79
85097;SHT30;75436;53.502;10.030;2024-01-30T03:47:32;1.75;91.92
85097;SHT30;75436;53.502;10.030;2024-01-30T03:50:00;1.75;91.90
85097;SHT30;75436;53.502;10.030;2024-01-30T03:52:28;1.70;91.85
85097;SHT30;75436;53.502;10.030;2024-01-30T03:54:53;1.73;92.06
85097;SHT30;75436;53.502;10.030;2024-01-30T03:57:20;1.81;92.11
85097;SHT30;75436;53.502;10.030;2024-01-30T03:59:50;1.85;92.09
85097;SHT30;75436;53.502;10.030;2024-01-30T04:02:17;1.93;92.22
85097;SHT30;75436;53.502;10.030;2024-01-30T04:04:43;1.98;92.24
85097;SHT30;75436;53.502;10.030;2024-01-30T04:07:10;2.02;92.31
85097;SHT30;75436;53.502;10.030;2024-01-30T04:09:38;1.98;91.85
85097;SHT30;75436;53.502;10.030;2024-01-30T04:12:04;1.98;92.02
85097;SHT30;75436;53.502;10.030;2024-01-30T04:14:29;2.00;92.04
85097;SHT30;75436;53.502;10.030;2024-01-30T04:16:56;1.95;91.59
85097;SHT30;75436;53.502;10.030;2024-01-30T04:19:22;1.87;91.52
85097;SHT30;75436;53.502;10.030;2024-01-30T04:21:47;1.75;91.42
85097;SHT30;75436;53.502;10.030;2024-01-30T04:24:13;1.68;91.72
85097;SHT30;75436;53.502;10.030;2024-01-30T04:26:39;1.64;91.75
85097;SHT30;75436;53.502;10.030;2024-01-30T04:29:06;1.56;91.82
85097;SHT30;75436;53.502;10.030;2024-01-30T04:31:31;1.50;91.90
85097;SHT30;75436;53.502;10.030;2024-01-30T04:33:57;1.43;92.01
85097;SHT30;75436;53.502;10.030;2024-01-30T04:36:23;1.42;92.16
85097;SHT30;75436;53.502;10.030;2024-01-30T04:38:50;1.44;92.45
85097;SHT30;75436;53.502;10.030;2024-01-30T04:41:16;1.42;92.35
85097;SHT30;75436;53.502;10.030;2024-01-30T04:43:42;1.46;92.61
85097;SHT30;75436;53.502;10.030;2024-01-30T04:46:08;1.47;92.74
85097;SHT30;75436;53.502;10.030;2024-01-30T04:48:35;1.52;92.72
85097;SHT30;75436;53.502;10.030;2024-01-30T04:51:03;1.71;93.18
85097;SHT30;75436;53.502;10.030;2024-01-30T04:53:32;1.75;93.05
85097;SHT30;75436;53.502;10.030;2024-01-30T04:55:59;1.73;92.78
85097;SHT30;75436;53.502;10.030;2024-01-30T04:58:25;1.61;92.54
85097;SHT30;75436;53.502;10.030;2024-01-30T05:00:50;1.78;93.00
85097;SHT30;75436;53.502;10.030;2024-01-30T05:03:19;1.82;93.02
85097;SHT30;75436;53.502;10.030;2024-01-30T05:05:45;1.74;92.79
85097;SHT30;75436;53.502;10.030;2024-01-30T05:08:11;1.64;92.55
85097;SHT30;75436;53.502;10.030;2024-01-30T05:10:37;1.54;92.46
85097;SHT30;75436;53.502;10.030;2024-01-30T05:13:02;1.47;92.55
85097;SHT30;75436;53.502;10.030;2024-01-30T05:15:28;1.42;92.59
85097;SHT30;75436;53.502;10.030;2024-01-30T05:17:53;1.32;92.33
85097;SHT30;75436;53.502;10.030;2024-01-30T05:20:19;1.29;92.60
85097;SHT30;75436;53.502;10.030;2024-01-30T05:22:45;1.25;92.70
85097;SHT30;75436;53.502;10.030;2024-01-30T05:25:13;1.23;92.82
85097;SHT30;75436;53.502;10.030;2024-01-30T05:27:38;1.25;92.93
85097;SHT30;75436;53.502;10.030;2024-01-30T05:30:06;1.25;93.07
85097;SHT30;75436;53.502;10.030;2024-01-30T05:32:34;1.22;93.07
85097;SHT30;75436;53.502;10.030;2024-01-30T05:34:59;1.19;93.16
85097;SHT30;75436;53.502;10.030;2024-01-30T05:37:24;1.22;93.39
85097;SHT30;75436;53.502;10.030;2024-01-30T05:39:52;1.23;93.36
85097;SHT30;75436;53.502;10.030;2024-01-30T05:42:18;1.26;93.39
85097;SHT30;75436;53.502;10.030;2024-01-30T05:44:43;1.28;93.41
85097;SHT30;75436;53.502;10.030;2024-01-30T05:47:09;1.28;93.40
85097;SHT30;75436;53.502;10.030;2024-01-30T05:49:34;1.32;93.51
85097;SHT30;75436;53.502;10.030;2024-01-30T05:52:03;1.31;93.54
85097;SHT30;75436;53.502;10.030;2024-01-30T05:54:29;1.35;93.57
85097;SHT30;75436;53.502;10.030;2024-01-30T05:56:54;1.38;93.62
85097;SHT30;75436;53.502;10.030;2024-01-30T05:59:19;1.38;93.66
85097;SHT30;75436;53.502;10.030;2024-01-30T06:01:47;1.39;93.69
85097;SHT30;75436;53.502;10.030;2024-01-30T06:04:16;1.36;93.67
85097;SHT30;75436;53.502;10.030;2024-01-30T06:06:41;1.38;93.71
85097;SHT30;75436;53.502;10.030;2024-01-30T06:09:08;1.43;93.74
85097;SHT30;75436;53.502;10.030;2024-01-30T06:11:38;1.40;93.77
85097;SHT30;75436;53.502;10.030;2024-01-30T06:14:07;1.44;93.73
85097;SHT30;75436;53.502;10.030;2024-01-30T06:16:33;1.50;93.85
85097;SHT30;75436;53.502;10.030;2024-01-30T06:19:00;1.59;93.91
85097;SHT30;75436;53.502;10.030;2024-01-30T06:21:26;1.59;93.90
85097;SHT30;75436;53.502;10.030;2024-01-30T06:23:51;1.64;93.83
85097;SHT30;75436;53.502;10.030;2024-01-30T06:26:17;1.71;93.93
85097;SHT30;75436;53.502;10.030;2024-01-30T06:28:43;1.74;93.92
85097;SHT30;75436;53.502;10.030;2024-01-30T06:31:09;1.75;93.86
85097;SHT30;75436;53.502;10.030;2024-01-30T06:33:36;1.85;93.90
85097;SHT30;75436;53.502;10.030;2024-01-30T06:36:01;1.88;93.94
85097;SHT30;75436;53.502;10.030;2024-01-30T06:38:26;1.94;93.93
85097;SHT30;75436;53.502;10.030;2024-01-30T06:40:52;2.01;93.95
85097;SHT30;75436;53.502;10.030;2024-01-30T06:43:17;2.02;93.89
85097;SHT30;75436;53.502;10.030;2024-01-30T06:45:43;2.04;93.85
85097;SHT30;75436;53.502;10.030;2024-01-30T06:48:08;2.04;93.87
85097;SHT30;75436;53.502;10.030;2024-01-30T06:50:34;2.08;93.92
85097;SHT30;75436;53.502;10.030;2024-01-30T06:53:00;2.15;93.99
85097;SHT30;75436;53.502;10.030;2024-01-30T06:55:27;2.18;93.89
85097;SHT30;75436;53.502;10.030;2024-01-30T06:57:53;2.14;93.79
85097;SHT30;75436;53.502;10.030;2024-01-30T07:00:19;2.12;93.80
85097;SHT30;75436;53.502;10.030;2024-01-30T07:02:46;2.10;93.77
85097;SHT30;75436;53.502;10.030;2024-01-30T07:05:13;2.10;93.79
85097;SHT30;75436;53.502;10.030;2024-01-30T07:07:39;2.05;93.79
85097;SHT30;75436;53.502;10.030;2024-01-30T07:10:05;2.07;93.78
85097;SHT30;75436;53.502;10.030;2024-01-30T07:12:31;2.08;93.77
85097;SHT30;75436;53.502;10.030;2024-01-30T07:14:57;2.08;93.80
85097;SHT30;75436;53.502;10.030;2024-01-30T07:17:25;2.19;93.91
85097;SHT30;75436;53.502;10.030;2024-01-30T07:19:51;2.25;93.91
85097;SHT30;75436;53.502;10.030;2024-01-30T07:22:19;2.32;93.91
85097;SHT30;75436;53.502;10.030;2024-01-30T07:24:44;2.32;93.89
85097;SHT30;75436;53.502;10.030;2024-01-30T07:27:12;2.35;93.84
85097;SHT30;75436;53.502;10.030;2024-01-30T07:29:38;2.40;93.78
85097;SHT30;75436;53.502;10.030;2024-01-30T07:32:05;2.45;93.63
85097;SHT30;75436;53.502;10.030;2024-01-30T07:34:53;2.46;93.63
85097;SHT30;75436;53.502;10.030;2024-01-30T07:37:19;2.50;93.73
85097;SHT30;75436;53.502;10.030;2024-01-30T07:39:44;2.49;93.64
85097;SHT30;75436;53.502;10.030;2024-01-30T07:42:10;2.57;93.62
85097;SHT30;75436;53.502;10.030;2024-01-30T07:44:35;2.54;93.58
85097;SHT30;75436;53.502;10.030;2024-01-30T07:47:01;2.60;93.57
85097;SHT30;75436;53.502;10.030;2024-01-30T07:49:29;2.66;93.61
85097;SHT30;75436;53.502;10.030;2024-01-30T07:51:55;2.73;93.56
85097;SHT30;75436;53.502;10.030;2024-01-30T07:54:20;2.76;93.54
85097;SHT30;75436;53.502;10.030;2024-01-30T07:56:46;2.81;93.46
85097;SHT30;75436;53.502;10.030;2024-01-30T07:59:12;2.84;93.36
85097;SHT30;75436;53.502;10.030;2024-01-30T08:01:38;2.89;93.28
85097;SHT30;75436;53.502;10.030;2024-01-30T08:04:04;2.94;93.31
85097;SHT30;75436;53.502;10.030;2024-01-30T08:06:29;2.96;93.20
85097;SHT30;75436;53.502;10.030;2024-01-30T08:08:56;2.96;93.09
85097;SHT30;75436;53.502;10.030;2024-01-30T08:11:22;3.05;93.00
85097;SHT30;75436;53.502;10.030;2024-01-30T08:13:54;3.03;92.93
85097;SHT30;75436;53.502;10.030;2024-01-30T08:16:19;3.08;92.82
85097;SHT30;75436;53.502;10.030;2024-01-30T08:18:46;3.12;92.72
85097;SHT30;75436;53.502;10.030;2024-01-30T08:21:11;3.14;92.62
85097;SHT30;75436;53.502;10.030;2024-01-30T08:23:39;3.20;92.53
85097;SHT30;75436;53.502;10.030;2024-01-30T08:26:06;3.24;92.41
85097;SHT30;75436;53.502;10.030;2024-01-30T08:28:32;3.31;92.23
85097;SHT30;75436;53.502;10.030;2024-01-30T08:30:59;3.36;91.94
85097;SHT30;75436;53.502;10.030;2024-01-30T08:33:25;3.41;91.90
85097;SHT30;75436;53.502;10.030;2024-01-30T08:35:50;3.49;91.99
85097;SHT30;75436;53.502;10.030;2024-01-30T08:38:17;3.56;91.50
85097;SHT30;75436;53.502;10.030;2024-01-30T08:40:42;3.62;91.50
85097;SHT30;75436;53.502;10.030;2024-01-30T08:43:09;3.70;91.42
85097;SHT30;75436;53.502;10.030;2024-01-30T08:45:35;3.76;91.23
85097;SHT30;75436;53.502;10.030;2024-01-30T08:48:03;3.76;91.00
85097;SHT30;75436;53.502;10.030;2024-01-30T08:50:28;3.83;90.94
85097;SHT30;75436;53.502;10.030;2024-01-30T08:52:55;3.94;90.80
85097;SHT30;75436;53.502;10.030;2024-01-30T08:55:20;3.97;90.48
85097;SHT30;75436;53.502;10.030;2024-01-30T08:57:45;4.04;90.53
85097;SHT30;75436;53.502;10.030;2024-01-30T09:00:12;4.22;90.27
85097;SHT30;75436;53.502;10.030;2024-01-30T09:02:37;4.34;89.81
85097;SHT30;75436;53.502;10.030;2024-01-30T09:05:03;4.42;89.60
85097;SHT30;75436;53.502;10.030;2024-01-30T09:07:28;4.54;89.34
85097;SHT30;75436;53.502;10.030;2024-01-30T09:09:54;4.64;89.19
85097;SHT30;75436;53.502;10.030;2024-01-30T09:12:19;4.69;89.03
85097;SHT30;75436;53.502;10.030;2024-01-30T09:14:45;4.79;88.94
85097;SHT30;75436;53.502;10.030;2024-01-30T09:17:12;4.90;88.92
85097;SHT30;75436;53.502;10.030;2024-01-30T09:19:38;5.16;88.32
85097;SHT30;75436;53.502;10.030;2024-01-30T09:22:04;5.28;87.73
85097;SHT30;75436;53.502;10.030;2024-01-30T09:24:29;5.43;87.34
85097;SHT30;75436;53.502;10.030;2024-01-30T09:26:54;5.44;87.10
85097;SHT30;75436;53.502;10.030;2024-01-30T09:29:21;5.43;86.99
85097;SHT30;75436;53.502;10.030;2024-01-30T09:31:48;5.47;86.82
85097;SHT30;75436;53.502;10.030;2024-01-30T09:34:14;5.47;86.79
85097;SHT30;75436;53.502;10.030;2024-01-30T09:36:40;5.52;86.77
85097;SHT30;75436;53.502;10.030;2024-01-30T09:39:05;5.57;86.83
85097;SHT30;75436;53.502;10.030;2024-01-30T09:41:48;5.58;86.96
85097;SHT30;75436;53.502;10.030;2024-01-30T09:44:16;5.72;86.64
85097;SHT30;75436;53.502;10.030;2024-01-30T09:46:46;5.78;86.43
85097;SHT30;75436;53.502;10.030;2024-01-30T09:49:13;5.79;86.32
85097;SHT30;75436;53.502;10.030;2024-01-30T09:51:40;5.85;86.35
85097;SHT30;75436;53.502;10.030;2024-01-30T09:54:09;5.89;86.11
85097;SHT30;75436;53.502;10.030;2024-01-30T09:56:35;5.99;86.04
85097;SHT30;75436;53.502;10.030;2024-01-30T09:59:00;6.10;85.82
85097;SHT30;75436;53.502;10.030;2024-01-30T10:01:26;6.29;85.46
85097;SHT30;75436;53.502;10.030;2024-01-30T10:03:52;6.50;85.01
85097;SHT30;75436;53.502;10.030;2024-01-30T10:06:18;6.60;84.83
85097;SHT30;75436;53.502;10.030;2024-01-30T10:08:47;6.51;84.71
85097;SHT30;75436;53.502;10.030;2024-01-30T10:11:12;6.67;84.37
85097;SHT30;75436;53.502;10.030;2024-01-30T10:13:39;6.80;83.85
85097;SHT30;75436;53.502;10.030;2024-01-30T10:16:06;6.70;84.23
85097;SHT30;75436;53.502;10.030;2024-01-30T10:18:32;6.95;83.79
85097;SHT30;75436;53.502;10.030;2024-01-30T10:20:59;7.08;83.39
85097;SHT30;75436;53.502;10.030;2024-01-30T10:23:24;7.15;83.11
85097;SHT30;75436;53.502;10.030;2024-01-30T10:25:53;7.15;83.51
85097;SHT30;75436;53.502;10.030;2024-01-30T10:28:20;7.12;83.08
85097;SHT30;75436;53.502;10.030;2024-01-30T10:30:46;7.22;83.29
85097;SHT30;75436;53.502;10.030;2024-01-30T10:33:23;7.22;82.98
85097;SHT30;75436;53.502;10.030;2024-01-30T10:35:49;7.23;83.35
85097;SHT30;75436;53.502;10.030;2024-01-30T10:38:15;7.29;83.65
85097;SHT30;75436;53.502;10.030;2024-01-30T10:40:43;7.46;83.62
85097;SHT30;75436;53.502;10.030;2024-01-30T10:43:11;7.53;83.37
85097;SHT30;75436;53.502;10.030;2024-01-30T10:45:41;7.45;82.50
85097;SHT30;75436;53.502;10.030;2024-01-30T10:48:09;7.53;82.52
85097;SHT30;75436;53.502;10.030;2024-01-30T10:50:36;7.47;82.87
85097;SHT30;75436;53.502;10.030;2024-01-30T10:53:04;7.62;82.51
85097;SHT30;75436;53.502;10.030;2024-01-30T10:55:31;7.59;83.03
85097;SHT30;75436;53.502;10.030;2024-01-30T10:57:56;7.57;83.16
85097;SHT30;75436;53.502;10.030;2024-01-30T11:00:22;7.66;82.66
85097;SHT30;75436;53.502;10.030;2024-01-30T11:02:51;7.66;82.60
85097;SHT30;75436;53.502;10.030;2024-01-30T11:05:24;7.85;82.85
85097;SHT30;75436;53.502;10.030;2024-01-30T11:07:51;7.87;82.83
85097;SHT30;75436;53.502;10.030;2024-01-30T11:10:17;7.97;82.18
85097;SHT30;75436;53.502;10.030;2024-01-30T11:12:43;8.02;82.46
85097;SHT30;75436;53.502;10.030;2024-01-30T11:15:16;7.93;82.15
85097;SHT30;75436;53.502;10.030;2024-01-30T11:20:25;7.95;82.52
85097;SHT30;75436;53.502;10.030;2024-01-30T11:22:52;8.05;82.41
85097;SHT30;75436;53.502;10.030;2024-01-30T11:25:20;8.02;82.70
85097;SHT30;75436;53.502;10.030;2024-01-30T11:27:53;8.12;82.55
85097;SHT30;75436;53.502;10.030;2024-01-30T11:30:24;8.22;82.13
85097;SHT30;75436;53.502;10.030;2024-01-30T11:33:10;8.42;82.09
85097;SHT30;75436;53.502;10.030;2024-01-30T11:35:39;8.31;81.78
85097;SHT30;75436;53.502;10.030;2024-01-30T11:38:08;8.39;81.91
85097;SHT30;75436;53.502;10.030;2024-01-30T11:40:37;8.39;81.66
85097;SHT30;75436;53.502;10.030;2024-01-30T11:43:06;8.31;81.76
85097;SHT30;75436;53.502;10.030;2024-01-30T11:45:33;8.38;81.73
85097;SHT30;75436;53.502;10.030;2024-01-30T11:48:00;8.48;81.67
85097;SHT30;75436;53.502;10.030;2024-01-30T11:50:27;8.35;81.82
85097;SHT30;75436;53.502;10.030;2024-01-30T11:52:54;8.35;82.53
85097;SHT30;75436;53.502;10.030;2024-01-30T11:55:20;8.42;82.33
85097;SHT30;75436;53.502;10.030;2024-01-30T11:57:45;8.42;82.41
85097;SHT30;75436;53.502;10.030;2024-01-30T12:00:18;8.45;82.42
85097;SHT30;75436;53.502;10.030;2024-01-30T12:02:55;8.50;82.42
85097;SHT30;75436;53.502;10.030;2024-01-30T12:05:22;8.62;82.19
85097;SHT30;75436;53.502;10.030;2024-01-30T12:07:48;8.64;82.19
85097;SHT30;75436;53.502;10.030;2024-01-30T12:10:14;8.70;82.36
85097;SHT30;75436;53.502;10.030;2024-01-30T12:12:46;8.76;82.56
85097;SHT30;75436;53.502;10.030;2024-01-30T12:15:13;8.76;82.41
85097;SHT30;75436;53.502;10.030;2024-01-30T12:17:39;8.84;82.53
85097;SHT30;75436;53.502;10.030;2024-01-30T12:22:37;8.85;81.98
85097;SHT30;75436;53.502;10.030;2024-01-30T12:25:15;8.83;81.75
85097;SHT30;75436;53.502;10.030;2024-01-30T12:27:46;8.94;81.92
85097;SHT30;75436;53.502;10.030;2024-01-30T12:30:13;8.99;81.73
85097;SHT30;75436;53.502;10.030;2024-01-30T12:32:43;9.00;81.92
85097;SHT30;75436;53.502;10.030;2024-01-30T12:35:17;8.97;82.58
85097;SHT30;75436;53.502;10.030;2024-01-30T12:37:44;9.00;82.69
85097;SHT30;75436;53.502;10.030;2024-01-30T12:40:13;9.05;82.35
85097;SHT30;75436;53.502;10.030;2024-01-30T12:42:43;9.14;82.29
85097;SHT30;75436;53.502;10.030;2024-01-30T12:45:13;9.21;82.30
85097;SHT30;75436;53.502;10.030;2024-01-30T12:47:41;9.28;82.30
85097;SHT30;75436;53.502;10.030;2024-01-30T12:50:06;9.35;82.09
85097;SHT30;75436;53.502;10.030;2024-01-30T12:52:35;9.36;81.82
85097;SHT30;75436;53.502;10.030;2024-01-30T12:55:00;9.35;82.10
85097;SHT30;75436;53.502;10.030;2024-01-30T12:57:26;9.36;82.13
85097;SHT30;75436;53.502;10.030;2024-01-30T12:59:51;9.36;82.23
85097;SHT30;75436;53.502;10.030;2024-01-30T13:02:19;9.41;82.19
85097;SHT30;75436;53.502;10.030;2024-01-30T13:04:45;9.53;82.01
85097;SHT30;75436;53.502;10.030;2024-01-30T13:07:11;9.62;81.02
85097;SHT30;75436;53.502;10.030;2024-01-30T13:09:36;9.66;81.12
85097;SHT30;75436;53.502;10.030;2024-01-30T13:12:03;9.65;81.03
85097;SHT30;75436;53.502;10.030;2024-01-30T13:14:29;9.73;80.90
85097;SHT30;75436;53.502;10.030;2024-01-30T13:16:54;9.78;80.43
85097;SHT30;75436;53.502;10.030;2024-01-30T13:19:22;9.83;80.43
85097;SHT30;75436;53.502;10.030;2024-01-30T13:21:48;9.78;80.73
85097;SHT30;75436;53.502;10.030;2024-01-30T13:24:14;9.75;80.67
85097;SHT30;75436;53.502;10.030;2024-01-30T13:26:39;9.68;81.03
85097;SHT30;75436;53.502;10.030;2024-01-30T13:29:05;9.68;80.70
85097;SHT30;75436;53.502;10.030;2024-01-30T13:31:30;9.66;80.95
85097;SHT30;75436;53.502;10.030;2024-01-30T13:33:56;9.61;81.16
85097;SHT30;75436;53.502;10.030;2024-01-30T13:36:22;9.51;81.66
85097;SHT30;75436;53.502;10.030;2024-01-30T13:38:48;9.51;81.87
85097;SHT30;75436;53.502;10.030;2024-01-30T13:41:14;9.49;81.98
85097;SHT30;75436;53.502;10.030;2024-01-30T13:43:44;9.46;81.90
85097;SHT30;75436;53.502;10.030;2024-01-30T13:46:10;9.51;81.81
85097;SHT30;75436;53.502;10.030;2024-01-30T13:48:35;9.46;81.83
85097;SHT30;75436;53.502;10.030;2024-01-30T13:51:03;9.52;81.80
85097;SHT30;75436;53.502;10.030;2024-01-30T13:53:29;9.51;81.84
85097;SHT30;75436;53.502;10.030;2024-01-30T13:55:55;9.49;81.87
85097;SHT30;75436;53.502;10.030;2024-01-30T13:58:21;9.48;81.99
85097;SHT30;75436;53.502;10.030;2024-01-30T14:00:48;9.51;81.92
85097;SHT30;75436;53.502;10.030;2024-01-30T14:03:14;9.65;81.41
85097;SHT30;75436;53.502;10.030;2024-01-30T14:05:39;9.59;81.68
85097;SHT30;75436;53.502;10.030;2024-01-30T14:08:06;9.61;81.68
85097;SHT30;75436;53.502;10.030;2024-01-30T14:10:33;9.65;81.52
85097;SHT30;75436;53.502;10.030;2024-01-30T14:12:59;9.63;81.62
85097;SHT30;75436;53.502;10.030;2024-01-30T14:15:25;9.59;81.82
85097;SHT30;75436;53.502;10.030;2024-01-30T14:17:51;9.65;81.81
85097;SHT30;75436;53.502;10.030;2024-01-30T14:20:16;9.68;81.61
85097;SHT30;75436;53.502;10.030;2024-01-30T14:22:42;9.65;81.77
85097;SHT30;75436;53.502;10.030;2024-01-30T14:25:08;9.62;82.06
85097;SHT30;75436;53.502;10.030;2024-01-30T14:27:35;9.63;82.03
85097;SHT30;75436;53.502;10.030;2024-01-30T14:30:00;9.59;82.09
85097;SHT30;75436;53.502;10.030;2024-01-30T14:32:27;9.55;82.29
85097;SHT30;75436;53.502;10.030;2024-01-30T14:34:53;9.55;82.43
85097;SHT30;75436;53.502;10.030;2024-01-30T14:37:20;9.66;82.20
85097;SHT30;75436;53.502;10.030;2024-01-30T14:39:47;9.69;82.18
85097;SHT30;75436;53.502;10.030;2024-01-30T14:42:16;9.65;82.19
85097;SHT30;75436;53.502;10.030;2024-01-30T14:44:42;9.63;82.36
85097;SHT30;75436;53.502;10.030;2024-01-30T14:47:08;9.63;82.49
85097;SHT30;75436;53.502;10.030;2024-01-30T14:49:35;9.68;82.27
85097;SHT30;75436;53.502;10.030;2024-01-30T14:52:00;9.65;82.37
85097;SHT30;75436;53.502;10.030;2024-01-30T14:54:26;9.69;82.52
85097;SHT30;75436;53.502;10.030;2024-01-30T14:56:54;9.71;82.43
85097;SHT30;75436;53.502;10.030;2024-01-30T14:59:20;9.72;82.46
85097;SHT30;75436;53.502;10.030;2024-01-30T15:01:45;9.82;82.14
85097;SHT30;75436;53.502;10.030;2024-01-30T15:04:11;9.86;81.75
85097;SHT30;75436;53.502;10.030;2024-01-30T15:06:37;9.75;82.49
85097;SHT30;75436;53.502;10.030;2024-01-30T15:09:04;9.78;82.27
85097;SHT30;75436;53.502;10.030;2024-01-30T15:11:31;9.96;81.98
85097;SHT30;75436;53.502;10.030;2024-01-30T15:13:59;9.99;81.74
85097;SHT30;75436;53.502;10.030;2024-01-30T15:16:25;10.07;81.21
85097;SHT30;75436;53.502;10.030;2024-01-30T15:18:51;10.06;81.40
85097;SHT30;75436;53.502;10.030;2024-01-30T15:21:16;10.04;81.62
85097;SHT30;75436;53.502;10.030;2024-01-30T15:23:45;9.96;81.93
85097;SHT30;75436;53.502;10.030;2024-01-30T15:26:12;10.10;81.74
85097;SHT30;75436;53.502;10.030;2024-01-30T15:28:38;10.16;81.41
85097;SHT30;75436;53.502;10.030;2024-01-30T15:31:06;10.17;81.26